sensor_id;sensor_type;location;lat;lon;timestamp;P1;durP1;ratioP1;P2;durP2;ratioP2
7807;SDS011;3949;49.254;8.894;2024-01-30T00:00:28;10.17;;;8.63;;
7807;SDS011;3949;49.254;8.894;2024-01-30T00:02:54;14.03;;;9.50;;
7807;SDS011;3949;49.254;8.894;2024-01-30T00:05:20;13.03;;;9.43;;
7807;SDS011;3949;49.254;8.894;2024-01-30T00:07:46;14.27;;;9.40;;
7807;SDS011;3949;49.254;8.894;2024-01-30T00:10:12;15.03;;;8.83;;
7807;SDS011;3949;49.254;8.894;2024-01-30T00:12:38;11.13;;;8.73;;
7807;SDS011;3949;49.254;8.894;2024-01-30T00:15:04;15.63;;;9.60;;
7807;SDS011;3949;49.254;8.894;2024-01-30T00:17:33;13.33;;;9.00;;
7807;SDS011;3949;49.254;8.894;2024-01-30T00:19:59;13.60;;;8.87;;
7807;SDS011;3949;49.254;8.894;2024-01-30T00:22:25;13.37;;;9.00;;
7807;SDS011;3949;49.254;8.894;2024-01-30T00:24:51;13.03;;;8.67;;
7807;SDS011;3949;49.254;8.894;2024-01-30T00:27:17;11.83;;;8.37;;
7807;SDS011;3949;49.254;8.894;2024-01-30T00:29:43;10.80;;;7.97;;
7807;SDS011;3949;49.254;8.894;2024-01-30T00:32:09;15.17;;;10.40;;
7807;SDS011;3949;49.254;8.894;2024-01-30T00:34:35;15.90;;;10.63;;
7807;SDS011;3949;49.254;8.894;2024-01-30T00:37:01;11.90;;;8.73;;
7807;SDS011;3949;49.254;8.894;2024-01-30T00:39:27;11.13;;;7.90;;
7807;SDS011;3949;49.254;8.894;2024-01-30T00:41:53;11.97;;;8.73;;
7807;SDS011;3949;49.254;8.894;2024-01-30T00:44:19;10.37;;;7.83;;
7807;SDS011;3949;49.254;8.894;2024-01-30T00:46:45;11.73;;;8.37;;
7807;SDS011;3949;49.254;8.894;2024-01-30T00:49:11;12.17;;;8.80;;
7807;SDS011;3949;49.254;8.894;2024-01-30T00:51:37;12.50;;;9.30;;
7807;SDS011;3949;49.254;8.894;2024-01-30T00:54:03;12.87;;;8.50;;
7807;SDS011;3949;49.254;8.894;2024-01-30T00:56:31;10.07;;;7.87;;
7807;SDS011;3949;49.254;8.894;2024-01-30T00:58:57;11.43;;;7.60;;
7807;SDS011;3949;49.254;8.894;2024-01-30T01:01:23;10.73;;;7.73;;
7807;SDS011;3949;49.254;8.894;2024-01-30T01:03:49;9.63;;;7.57;;
7807;SDS011;3949;49.254;8.894;2024-01-30T01:06:15;12.33;;;7.47;;
7807;SDS011;3949;49.254;8.894;2024-01-30T01:08:41;13.50;;;8.47;;
7807;SDS011;3949;49.254;8.894;2024-01-30T01:11:07;13.50;;;8.67;;
7807;SDS011;3949;49.254;8.894;2024-01-30T01:13:32;13.60;;;8.80;;
7807;SDS011;3949;49.254;8.894;2024-01-30T01:15:58;11.27;;;9.00;;
7807;SDS011;3949;49.254;8.894;2024-01-30T01:18:24;9.47;;;7.87;;
7807;SDS011;3949;49.254;8.894;2024-01-30T01:20:52;10.30;;;7.63;;
7807;SDS011;3949;49.254;8.894;2024-01-30T01:23:18;13.77;;;8.77;;
7807;SDS011;3949;49.254;8.894;2024-01-30T01:25:44;8.93;;;7.77;;
7807;SDS011;3949;49.254;8.894;2024-01-30T01:28:10;9.17;;;7.43;;
7807;SDS011;3949;49.254;8.894;2024-01-30T01:30:36;9.73;;;6.80;;
7807;SDS011;3949;49.254;8.894;2024-01-30T01:33:02;10.13;;;6.97;;
7807;SDS011;3949;49.254;8.894;2024-01-30T01:35:28;9.60;;;7.40;;
7807;SDS011;3949;49.254;8.894;2024-01-30T01:37:54;12.23;;;7.60;;
7807;SDS011;3949;49.254;8.894;2024-01-30T01:40:21;13.50;;;8.03;;
7807;SDS011;3949;49.254;8.894;2024-01-30T01:42:47;11.93;;;7.47;;
7807;SDS011;3949;49.254;8.894;2024-01-30T01:45:13;11.93;;;8.40;;
7807;SDS011;3949;49.254;8.894;2024-01-30T01:47:39;11.23;;;8.33;;
7807;SDS011;3949;49.254;8.894;2024-01-30T01:50:05;9.87;;;7.57;;
7807;SDS011;3949;49.254;8.894;2024-01-30T01:52:31;9.30;;;8.03;;
7807;SDS011;3949;49.254;8.894;2024-01-30T01:54:58;9.93;;;7.67;;
7807;SDS011;3949;49.254;8.894;2024-01-30T01:57:24;9.53;;;7.60;;
7807;SDS011;3949;49.254;8.894;2024-01-30T01:59:50;8.73;;;7.77;;
7807;SDS011;3949;49.254;8.894;2024-01-30T02:02:16;9.40;;;6.83;;
7807;SDS011;3949;49.254;8.894;2024-01-30T02:04:43;9.70;;;7.57;;
7807;SDS011;3949;49.254;8.894;2024-01-30T02:07:09;10.93;;;8.37;;
7807;SDS011;3949;49.254;8.894;2024-01-30T02:09:35;12.50;;;8.40;;
7807;SDS011;3949;49.254;8.894;2024-01-30T02:12:01;12.73;;;8.53;;
7807;SDS011;3949;49.254;8.894;2024-01-30T02:14:27;9.70;;;7.53;;
7807;SDS011;3949;49.254;8.894;2024-01-30T02:16:53;11.27;;;8.17;;
7807;SDS011;3949;49.254;8.894;2024-01-30T02:19:19;9.80;;;8.03;;
7807;SDS011;3949;49.254;8.894;2024-01-30T02:21:45;10.13;;;7.23;;
7807;SDS011;3949;49.254;8.894;2024-01-30T02:24:11;9.23;;;6.83;;
7807;SDS011;3949;49.254;8.894;2024-01-30T02:26:37;10.13;;;7.43;;
7807;SDS011;3949;49.254;8.894;2024-01-30T02:29:03;8.77;;;6.50;;
7807;SDS011;3949;49.254;8.894;2024-01-30T02:31:29;8.17;;;6.07;;
7807;SDS011;3949;49.254;8.894;2024-01-30T02:33:55;7.33;;;6.23;;
7807;SDS011;3949;49.254;8.894;2024-01-30T02:36:21;6.87;;;5.90;;
7807;SDS011;3949;49.254;8.894;2024-01-30T02:38:47;7.60;;;5.90;;
7807;SDS011;3949;49.254;8.894;2024-01-30T02:41:13;8.87;;;6.70;;
7807;SDS011;3949;49.254;8.894;2024-01-30T02:43:39;11.60;;;7.37;;
7807;SDS011;3949;49.254;8.894;2024-01-30T02:46:05;9.33;;;7.10;;
7807;SDS011;3949;49.254;8.894;2024-01-30T02:48:31;13.20;;;9.03;;
7807;SDS011;3949;49.254;8.894;2024-01-30T02:50:57;11.53;;;7.60;;
7807;SDS011;3949;49.254;8.894;2024-01-30T02:53:23;10.53;;;7.37;;
7807;SDS011;3949;49.254;8.894;2024-01-30T02:55:49;8.27;;;6.40;;
7807;SDS011;3949;49.254;8.894;2024-01-30T02:58:15;7.73;;;6.50;;
7807;SDS011;3949;49.254;8.894;2024-01-30T03:00:41;7.47;;;6.03;;
7807;SDS011;3949;49.254;8.894;2024-01-30T03:03:07;9.03;;;6.57;;
7807;SDS011;3949;49.254;8.894;2024-01-30T03:05:33;6.93;;;6.00;;
7807;SDS011;3949;49.254;8.894;2024-01-30T03:07:59;7.10;;;5.27;;
7807;SDS011;3949;49.254;8.894;2024-01-30T03:10:25;8.83;;;5.73;;
7807;SDS011;3949;49.254;8.894;2024-01-30T03:12:51;8.27;;;6.13;;
7807;SDS011;3949;49.254;8.894;2024-01-30T03:15:17;5.80;;;5.10;;
7807;SDS011;3949;49.254;8.894;2024-01-30T03:17:43;6.00;;;5.40;;
7807;SDS011;3949;49.254;8.894;2024-01-30T03:20:09;7.33;;;5.50;;
7807;SDS011;3949;49.254;8.894;2024-01-30T03:22:35;6.40;;;5.57;;
7807;SDS011;3949;49.254;8.894;2024-01-30T03:25:01;7.53;;;5.70;;
7807;SDS011;3949;49.254;8.894;2024-01-30T03:27:27;6.77;;;5.50;;
7807;SDS011;3949;49.254;8.894;2024-01-30T03:29:53;16.63;;;8.70;;
7807;SDS011;3949;49.254;8.894;2024-01-30T03:32:19;15.90;;;8.93;;
7807;SDS011;3949;49.254;8.894;2024-01-30T03:34:45;21.17;;;12.73;;
7807;SDS011;3949;49.254;8.894;2024-01-30T03:37:11;23.10;;;14.63;;
7807;SDS011;3949;49.254;8.894;2024-01-30T03:39:37;16.07;;;10.27;;
7807;SDS011;3949;49.254;8.894;2024-01-30T03:42:03;11.10;;;7.57;;
7807;SDS011;3949;49.254;8.894;2024-01-30T03:44:29;8.60;;;6.57;;
7807;SDS011;3949;49.254;8.894;2024-01-30T03:46:55;9.47;;;7.60;;
7807;SDS011;3949;49.254;8.894;2024-01-30T03:49:23;11.07;;;7.80;;
7807;SDS011;3949;49.254;8.894;2024-01-30T03:51:49;10.07;;;7.80;;
7807;SDS011;3949;49.254;8.894;2024-01-30T03:54:15;9.60;;;7.43;;
7807;SDS011;3949;49.254;8.894;2024-01-30T03:56:41;9.20;;;6.20;;
7807;SDS011;3949;49.254;8.894;2024-01-30T03:59:07;7.63;;;6.93;;
7807;SDS011;3949;49.254;8.894;2024-01-30T04:01:33;8.17;;;6.57;;
7807;SDS011;3949;49.254;8.894;2024-01-30T04:03:59;8.13;;;6.67;;
7807;SDS011;3949;49.254;8.894;2024-01-30T04:06:26;9.37;;;6.83;;
7807;SDS011;3949;49.254;8.894;2024-01-30T04:08:51;7.60;;;6.33;;
7807;SDS011;3949;49.254;8.894;2024-01-30T04:11:18;8.53;;;6.10;;
7807;SDS011;3949;49.254;8.894;2024-01-30T04:13:45;7.07;;;5.53;;
7807;SDS011;3949;49.254;8.894;2024-01-30T04:16:19;8.43;;;6.10;;
7807;SDS011;3949;49.254;8.894;2024-01-30T04:18:46;9.47;;;6.53;;
7807;SDS011;3949;49.254;8.894;2024-01-30T04:21:12;8.63;;;6.57;;
7807;SDS011;3949;49.254;8.894;2024-01-30T04:23:39;8.53;;;6.43;;
7807;SDS011;3949;49.254;8.894;2024-01-30T04:26:05;7.33;;;6.23;;
7807;SDS011;3949;49.254;8.894;2024-01-30T04:28:31;7.40;;;5.90;;
7807;SDS011;3949;49.254;8.894;2024-01-30T04:30:57;8.80;;;6.50;;
7807;SDS011;3949;49.254;8.894;2024-01-30T04:33:23;7.93;;;6.43;;
7807;SDS011;3949;49.254;8.894;2024-01-30T04:35:49;8.57;;;6.80;;
7807;SDS011;3949;49.254;8.894;2024-01-30T04:38:15;7.67;;;6.67;;
7807;SDS011;3949;49.254;8.894;2024-01-30T04:40:41;9.87;;;6.87;;
7807;SDS011;3949;49.254;8.894;2024-01-30T04:43:07;7.97;;;6.27;;
7807;SDS011;3949;49.254;8.894;2024-01-30T04:45:33;12.23;;;7.10;;
7807;SDS011;3949;49.254;8.894;2024-01-30T04:47:59;9.03;;;6.97;;
7807;SDS011;3949;49.254;8.894;2024-01-30T04:50:25;9.10;;;6.67;;
7807;SDS011;3949;49.254;8.894;2024-01-30T04:52:51;9.13;;;7.03;;
7807;SDS011;3949;49.254;8.894;2024-01-30T04:55:17;7.57;;;6.40;;
7807;SDS011;3949;49.254;8.894;2024-01-30T04:57:43;8.43;;;6.70;;
7807;SDS011;3949;49.254;8.894;2024-01-30T05:00:09;8.47;;;6.47;;
7807;SDS011;3949;49.254;8.894;2024-01-30T05:02:35;7.97;;;5.97;;
7807;SDS011;3949;49.254;8.894;2024-01-30T05:05:01;9.87;;;7.33;;
7807;SDS011;3949;49.254;8.894;2024-01-30T05:07:28;9.07;;;6.93;;
7807;SDS011;3949;49.254;8.894;2024-01-30T05:09:54;9.27;;;7.20;;
7807;SDS011;3949;49.254;8.894;2024-01-30T05:12:20;8.30;;;6.87;;
7807;SDS011;3949;49.254;8.894;2024-01-30T05:14:46;9.30;;;7.63;;
7807;SDS011;3949;49.254;8.894;2024-01-30T05:17:12;10.83;;;8.27;;
7807;SDS011;3949;49.254;8.894;2024-01-30T05:19:38;9.67;;;7.93;;
7807;SDS011;3949;49.254;8.894;2024-01-30T05:22:04;10.27;;;7.63;;
7807;SDS011;3949;49.254;8.894;2024-01-30T05:24:30;8.97;;;7.57;;
7807;SDS011;3949;49.254;8.894;2024-01-30T05:26:57;8.43;;;6.73;;
7807;SDS011;3949;49.254;8.894;2024-01-30T05:29:23;9.63;;;7.30;;
7807;SDS011;3949;49.254;8.894;2024-01-30T05:31:49;10.43;;;7.70;;
7807;SDS011;3949;49.254;8.894;2024-01-30T05:34:15;9.90;;;7.23;;
7807;SDS011;3949;49.254;8.894;2024-01-30T05:36:41;11.60;;;8.80;;
7807;SDS011;3949;49.254;8.894;2024-01-30T05:39:08;10.87;;;7.97;;
7807;SDS011;3949;49.254;8.894;2024-01-30T05:41:33;10.70;;;8.23;;
7807;SDS011;3949;49.254;8.894;2024-01-30T05:43:59;9.37;;;7.50;;
7807;SDS011;3949;49.254;8.894;2024-01-30T05:46:25;8.87;;;6.23;;
7807;SDS011;3949;49.254;8.894;2024-01-30T05:48:52;9.47;;;6.83;;
7807;SDS011;3949;49.254;8.894;2024-01-30T05:51:17;9.20;;;6.37;;
7807;SDS011;3949;49.254;8.894;2024-01-30T05:53:43;9.33;;;7.27;;
7807;SDS011;3949;49.254;8.894;2024-01-30T05:56:09;10.47;;;7.23;;
7807;SDS011;3949;49.254;8.894;2024-01-30T05:58:35;8.90;;;6.60;;
7807;SDS011;3949;49.254;8.894;2024-01-30T06:01:02;9.20;;;6.83;;
7807;SDS011;3949;49.254;8.894;2024-01-30T06:03:28;13.73;;;9.47;;
7807;SDS011;3949;49.254;8.894;2024-01-30T06:05:54;9.90;;;8.30;;
7807;SDS011;3949;49.254;8.894;2024-01-30T06:08:20;10.27;;;7.63;;
7807;SDS011;3949;49.254;8.894;2024-01-30T06:10:47;8.17;;;7.10;;
7807;SDS011;3949;49.254;8.894;2024-01-30T06:13:13;8.30;;;7.07;;
7807;SDS011;3949;49.254;8.894;2024-01-30T06:15:39;8.47;;;6.40;;
7807;SDS011;3949;49.254;8.894;2024-01-30T06:18:05;9.20;;;7.10;;
7807;SDS011;3949;49.254;8.894;2024-01-30T06:20:31;9.73;;;8.30;;
7807;SDS011;3949;49.254;8.894;2024-01-30T06:22:57;13.37;;;8.00;;
7807;SDS011;3949;49.254;8.894;2024-01-30T06:25:23;12.70;;;8.03;;
7807;SDS011;3949;49.254;8.894;2024-01-30T06:27:49;11.07;;;7.80;;
7807;SDS011;3949;49.254;8.894;2024-01-30T06:30:15;9.03;;;7.90;;
7807;SDS011;3949;49.254;8.894;2024-01-30T06:32:41;10.00;;;7.83;;
7807;SDS011;3949;49.254;8.894;2024-01-30T06:35:07;9.97;;;7.73;;
7807;SDS011;3949;49.254;8.894;2024-01-30T06:37:35;9.77;;;7.40;;
7807;SDS011;3949;49.254;8.894;2024-01-30T06:40:01;8.93;;;7.70;;
7807;SDS011;3949;49.254;8.894;2024-01-30T06:42:27;10.23;;;7.80;;
7807;SDS011;3949;49.254;8.894;2024-01-30T06:44:53;8.40;;;6.93;;
7807;SDS011;3949;49.254;8.894;2024-01-30T06:47:19;8.33;;;6.67;;
7807;SDS011;3949;49.254;8.894;2024-01-30T06:49:45;12.60;;;10.00;;
7807;SDS011;3949;49.254;8.894;2024-01-30T06:52:11;40.57;;;25.57;;
7807;SDS011;3949;49.254;8.894;2024-01-30T06:54:37;24.17;;;16.00;;
7807;SDS011;3949;49.254;8.894;2024-01-30T06:57:03;15.13;;;10.93;;
7807;SDS011;3949;49.254;8.894;2024-01-30T06:59:29;14.87;;;9.57;;
7807;SDS011;3949;49.254;8.894;2024-01-30T07:01:55;12.60;;;9.00;;
7807;SDS011;3949;49.254;8.894;2024-01-30T07:04:21;12.50;;;8.83;;
7807;SDS011;3949;49.254;8.894;2024-01-30T07:06:47;13.27;;;10.30;;
7807;SDS011;3949;49.254;8.894;2024-01-30T07:09:13;27.43;;;16.80;;
7807;SDS011;3949;49.254;8.894;2024-01-30T07:11:39;13.40;;;8.27;;
7807;SDS011;3949;49.254;8.894;2024-01-30T07:14:05;11.50;;;8.77;;
7807;SDS011;3949;49.254;8.894;2024-01-30T07:16:31;12.90;;;9.77;;
7807;SDS011;3949;49.254;8.894;2024-01-30T07:18:57;11.90;;;8.83;;
7807;SDS011;3949;49.254;8.894;2024-01-30T07:21:23;25.33;;;15.63;;
7807;SDS011;3949;49.254;8.894;2024-01-30T07:23:53;14.47;;;10.37;;
7807;SDS011;3949;49.254;8.894;2024-01-30T07:26:20;15.00;;;10.10;;
7807;SDS011;3949;49.254;8.894;2024-01-30T07:28:46;13.30;;;9.30;;
7807;SDS011;3949;49.254;8.894;2024-01-30T07:31:12;13.70;;;10.33;;
7807;SDS011;3949;49.254;8.894;2024-01-30T07:33:38;12.07;;;9.03;;
7807;SDS011;3949;49.254;8.894;2024-01-30T07:36:04;12.07;;;9.17;;
7807;SDS011;3949;49.254;8.894;2024-01-30T07:38:33;12.40;;;9.70;;
7807;SDS011;3949;49.254;8.894;2024-01-30T07:40:59;11.47;;;8.80;;
7807;SDS011;3949;49.254;8.894;2024-01-30T07:43:24;10.60;;;9.03;;
7807;SDS011;3949;49.254;8.894;2024-01-30T07:45:50;12.13;;;8.83;;
7807;SDS011;3949;49.254;8.894;2024-01-30T07:48:17;15.00;;;9.50;;
7807;SDS011;3949;49.254;8.894;2024-01-30T07:50:43;15.97;;;10.77;;
7807;SDS011;3949;49.254;8.894;2024-01-30T07:53:09;16.53;;;10.87;;
7807;SDS011;3949;49.254;8.894;2024-01-30T07:55:35;13.33;;;10.63;;
7807;SDS011;3949;49.254;8.894;2024-01-30T07:58:01;17.47;;;11.20;;
7807;SDS011;3949;49.254;8.894;2024-01-30T08:00:28;14.93;;;10.83;;
7807;SDS011;3949;49.254;8.894;2024-01-30T08:02:54;14.10;;;10.77;;
7807;SDS011;3949;49.254;8.894;2024-01-30T08:05:21;14.00;;;9.80;;
7807;SDS011;3949;49.254;8.894;2024-01-30T08:07:48;37.90;;;22.70;;
7807;SDS011;3949;49.254;8.894;2024-01-30T08:10:14;23.90;;;15.33;;
7807;SDS011;3949;49.254;8.894;2024-01-30T08:12:40;16.97;;;11.70;;
7807;SDS011;3949;49.254;8.894;2024-01-30T08:15:06;16.40;;;11.73;;
7807;SDS011;3949;49.254;8.894;2024-01-30T08:17:33;15.67;;;10.27;;
7807;SDS011;3949;49.254;8.894;2024-01-30T08:19:59;32.63;;;21.07;;
7807;SDS011;3949;49.254;8.894;2024-01-30T08:22:25;36.37;;;22.10;;
7807;SDS011;3949;49.254;8.894;2024-01-30T08:24:51;20.27;;;13.20;;
7807;SDS011;3949;49.254;8.894;2024-01-30T08:27:17;19.37;;;13.63;;
7807;SDS011;3949;49.254;8.894;2024-01-30T08:29:43;28.17;;;19.77;;
7807;SDS011;3949;49.254;8.894;2024-01-30T08:32:09;16.43;;;13.77;;
7807;SDS011;3949;49.254;8.894;2024-01-30T08:34:35;20.10;;;14.67;;
7807;SDS011;3949;49.254;8.894;2024-01-30T08:37:01;19.47;;;15.13;;
7807;SDS011;3949;49.254;8.894;2024-01-30T08:39:27;18.37;;;15.43;;
7807;SDS011;3949;49.254;8.894;2024-01-30T08:41:53;18.20;;;13.07;;
7807;SDS011;3949;49.254;8.894;2024-01-30T08:44:19;17.37;;;13.17;;
7807;SDS011;3949;49.254;8.894;2024-01-30T08:46:45;19.27;;;13.63;;
7807;SDS011;3949;49.254;8.894;2024-01-30T08:49:11;16.13;;;13.07;;
7807;SDS011;3949;49.254;8.894;2024-01-30T08:51:40;15.90;;;11.87;;
7807;SDS011;3949;49.254;8.894;2024-01-30T08:54:06;15.33;;;12.30;;
7807;SDS011;3949;49.254;8.894;2024-01-30T08:56:32;17.17;;;13.13;;
7807;SDS011;3949;49.254;8.894;2024-01-30T08:58:58;27.03;;;20.40;;
7807;SDS011;3949;49.254;8.894;2024-01-30T09:01:24;18.03;;;13.17;;
7807;SDS011;3949;49.254;8.894;2024-01-30T09:03:51;18.83;;;13.40;;
7807;SDS011;3949;49.254;8.894;2024-01-30T09:06:17;20.03;;;14.23;;
7807;SDS011;3949;49.254;8.894;2024-01-30T09:08:43;17.70;;;12.13;;
7807;SDS011;3949;49.254;8.894;2024-01-30T09:11:10;16.37;;;12.50;;
7807;SDS011;3949;49.254;8.894;2024-01-30T09:13:36;19.50;;;12.70;;
7807;SDS011;3949;49.254;8.894;2024-01-30T09:16:03;16.67;;;12.73;;
7807;SDS011;3949;49.254;8.894;2024-01-30T09:18:29;15.80;;;12.00;;
7807;SDS011;3949;49.254;8.894;2024-01-30T09:20:55;14.93;;;12.10;;
7807;SDS011;3949;49.254;8.894;2024-01-30T09:23:21;16.93;;;13.90;;
7807;SDS011;3949;49.254;8.894;2024-01-30T09:25:47;20.80;;;15.13;;
7807;SDS011;3949;49.254;8.894;2024-01-30T09:28:13;22.13;;;16.00;;
7807;SDS011;3949;49.254;8.894;2024-01-30T09:30:39;20.97;;;15.80;;
7807;SDS011;3949;49.254;8.894;2024-01-30T09:33:05;17.33;;;14.27;;
7807;SDS011;3949;49.254;8.894;2024-01-30T09:35:31;17.73;;;14.03;;
7807;SDS011;3949;49.254;8.894;2024-01-30T09:37:58;15.40;;;13.60;;
7807;SDS011;3949;49.254;8.894;2024-01-30T09:40:24;14.30;;;12.77;;
7807;SDS011;3949;49.254;8.894;2024-01-30T09:42:51;16.30;;;13.67;;
7807;SDS011;3949;49.254;8.894;2024-01-30T09:45:17;14.90;;;12.40;;
7807;SDS011;3949;49.254;8.894;2024-01-30T09:47:44;15.80;;;12.20;;
7807;SDS011;3949;49.254;8.894;2024-01-30T09:50:11;17.27;;;13.03;;
7807;SDS011;3949;49.254;8.894;2024-01-30T09:52:37;16.33;;;13.20;;
7807;SDS011;3949;49.254;8.894;2024-01-30T09:55:04;15.23;;;11.87;;
7807;SDS011;3949;49.254;8.894;2024-01-30T09:57:30;16.20;;;12.13;;
7807;SDS011;3949;49.254;8.894;2024-01-30T09:59:56;14.47;;;12.00;;
7807;SDS011;3949;49.254;8.894;2024-01-30T10:02:22;15.37;;;11.87;;
7807;SDS011;3949;49.254;8.894;2024-01-30T10:04:49;13.57;;;11.90;;
7807;SDS011;3949;49.254;8.894;2024-01-30T10:07:15;11.80;;;10.60;;
7807;SDS011;3949;49.254;8.894;2024-01-30T10:09:41;13.63;;;11.50;;
7807;SDS011;3949;49.254;8.894;2024-01-30T10:12:08;11.10;;;9.67;;
7807;SDS011;3949;49.254;8.894;2024-01-30T10:14:37;11.20;;;10.10;;
7807;SDS011;3949;49.254;8.894;2024-01-30T10:17:03;16.37;;;11.03;;
7807;SDS011;3949;49.254;8.894;2024-01-30T10:19:30;13.60;;;11.13;;
7807;SDS011;3949;49.254;8.894;2024-01-30T10:21:56;13.07;;;10.10;;
7807;SDS011;3949;49.254;8.894;2024-01-30T10:24:26;12.53;;;9.47;;
7807;SDS011;3949;49.254;8.894;2024-01-30T10:26:54;12.47;;;10.00;;
7807;SDS011;3949;49.254;8.894;2024-01-30T10:29:20;14.20;;;10.87;;
7807;SDS011;3949;49.254;8.894;2024-01-30T10:31:46;14.70;;;11.87;;
7807;SDS011;3949;49.254;8.894;2024-01-30T10:34:22;15.20;;;12.77;;
7807;SDS011;3949;49.254;8.894;2024-01-30T10:36:49;14.73;;;10.80;;
7807;SDS011;3949;49.254;8.894;2024-01-30T10:39:16;13.17;;;9.73;;
7807;SDS011;3949;49.254;8.894;2024-01-30T10:41:43;15.93;;;11.37;;
7807;SDS011;3949;49.254;8.894;2024-01-30T10:44:10;12.97;;;10.40;;
7807;SDS011;3949;49.254;8.894;2024-01-30T10:46:39;14.47;;;11.40;;
7807;SDS011;3949;49.254;8.894;2024-01-30T10:49:08;12.40;;;9.90;;
7807;SDS011;3949;49.254;8.894;2024-01-30T10:51:34;13.80;;;10.73;;
7807;SDS011;3949;49.254;8.894;2024-01-30T10:54:02;13.30;;;10.10;;
7807;SDS011;3949;49.254;8.894;2024-01-30T10:56:29;12.57;;;10.13;;
7807;SDS011;3949;49.254;8.894;2024-01-30T10:58:55;13.77;;;10.73;;
7807;SDS011;3949;49.254;8.894;2024-01-30T11:01:22;15.57;;;11.40;;
7807;SDS011;3949;49.254;8.894;2024-01-30T11:03:52;14.80;;;11.00;;
7807;SDS011;3949;49.254;8.894;2024-01-30T11:06:18;12.73;;;10.00;;
7807;SDS011;3949;49.254;8.894;2024-01-30T11:08:59;12.77;;;10.40;;
7807;SDS011;3949;49.254;8.894;2024-01-30T11:11:26;13.83;;;10.60;;
7807;SDS011;3949;49.254;8.894;2024-01-30T11:13:52;12.97;;;11.10;;
7807;SDS011;3949;49.254;8.894;2024-01-30T11:16:18;13.60;;;11.13;;
7807;SDS011;3949;49.254;8.894;2024-01-30T11:18:49;15.20;;;11.83;;
7807;SDS011;3949;49.254;8.894;2024-01-30T11:21:16;17.27;;;11.60;;
7807;SDS011;3949;49.254;8.894;2024-01-30T11:23:42;15.17;;;11.03;;
7807;SDS011;3949;49.254;8.894;2024-01-30T11:26:11;11.87;;;10.53;;
7807;SDS011;3949;49.254;8.894;2024-01-30T11:28:37;13.47;;;10.30;;
7807;SDS011;3949;49.254;8.894;2024-01-30T11:31:06;11.70;;;9.47;;
7807;SDS011;3949;49.254;8.894;2024-01-30T11:33:33;12.23;;;9.80;;
7807;SDS011;3949;49.254;8.894;2024-01-30T11:35:59;11.43;;;8.67;;
7807;SDS011;3949;49.254;8.894;2024-01-30T11:38:29;11.40;;;8.77;;
7807;SDS011;3949;49.254;8.894;2024-01-30T11:40:55;10.67;;;8.43;;
7807;SDS011;3949;49.254;8.894;2024-01-30T11:43:24;10.00;;;8.17;;
7807;SDS011;3949;49.254;8.894;2024-01-30T11:45:50;11.80;;;8.13;;
7807;SDS011;3949;49.254;8.894;2024-01-30T11:48:17;12.10;;;8.90;;
7807;SDS011;3949;49.254;8.894;2024-01-30T11:50:43;10.50;;;8.70;;
7807;SDS011;3949;49.254;8.894;2024-01-30T11:53:12;12.07;;;8.50;;
7807;SDS011;3949;49.254;8.894;2024-01-30T11:55:38;10.30;;;7.93;;
7807;SDS011;3949;49.254;8.894;2024-01-30T11:58:04;8.83;;;7.20;;
7807;SDS011;3949;49.254;8.894;2024-01-30T12:00:30;8.40;;;7.60;;
7807;SDS011;3949;49.254;8.894;2024-01-30T12:02:58;10.83;;;7.60;;
7807;SDS011;3949;49.254;8.894;2024-01-30T12:05:25;9.03;;;6.40;;
7807;SDS011;3949;49.254;8.894;2024-01-30T12:07:52;8.97;;;8.07;;
7807;SDS011;3949;49.254;8.894;2024-01-30T12:10:18;9.10;;;7.90;;
7807;SDS011;3949;49.254;8.894;2024-01-30T12:12:47;10.70;;;8.83;;
7807;SDS011;3949;49.254;8.894;2024-01-30T12:15:14;10.70;;;8.90;;
7807;SDS011;3949;49.254;8.894;2024-01-30T12:17:40;10.93;;;8.87;;
7807;SDS011;3949;49.254;8.894;2024-01-30T12:22:34;8.47;;;7.47;;
7807;SDS011;3949;49.254;8.894;2024-01-30T12:25:04;8.20;;;7.40;;
7807;SDS011;3949;49.254;8.894;2024-01-30T12:27:30;9.27;;;8.27;;
7807;SDS011;3949;49.254;8.894;2024-01-30T12:29:56;9.60;;;8.27;;
7807;SDS011;3949;49.254;8.894;2024-01-30T12:32:25;8.83;;;7.97;;
7807;SDS011;3949;49.254;8.894;2024-01-30T12:34:55;9.97;;;8.63;;
7807;SDS011;3949;49.254;8.894;2024-01-30T12:37:21;9.50;;;8.47;;
7807;SDS011;3949;49.254;8.894;2024-01-30T12:39:49;12.30;;;8.80;;
7807;SDS011;3949;49.254;8.894;2024-01-30T12:42:15;10.57;;;8.00;;
7807;SDS011;3949;49.254;8.894;2024-01-30T12:44:41;9.83;;;8.27;;
7807;SDS011;3949;49.254;8.894;2024-01-30T12:47:10;10.77;;;8.10;;
7807;SDS011;3949;49.254;8.894;2024-01-30T12:49:36;10.00;;;8.03;;
7807;SDS011;3949;49.254;8.894;2024-01-30T12:52:02;9.47;;;8.47;;
7807;SDS011;3949;49.254;8.894;2024-01-30T12:54:28;10.83;;;8.67;;
7807;SDS011;3949;49.254;8.894;2024-01-30T12:56:54;9.83;;;8.07;;
7807;SDS011;3949;49.254;8.894;2024-01-30T12:59:21;10.50;;;8.70;;
7807;SDS011;3949;49.254;8.894;2024-01-30T13:01:49;12.43;;;8.90;;
7807;SDS011;3949;49.254;8.894;2024-01-30T13:04:15;9.77;;;8.57;;
7807;SDS011;3949;49.254;8.894;2024-01-30T13:06:41;14.10;;;11.50;;
7807;SDS011;3949;49.254;8.894;2024-01-30T13:09:07;11.97;;;9.20;;
7807;SDS011;3949;49.254;8.894;2024-01-30T13:11:34;9.70;;;8.30;;
7807;SDS011;3949;49.254;8.894;2024-01-30T13:14:00;11.20;;;10.00;;
7807;SDS011;3949;49.254;8.894;2024-01-30T13:16:26;10.77;;;9.57;;
7807;SDS011;3949;49.254;8.894;2024-01-30T13:18:52;11.13;;;9.30;;
7807;SDS011;3949;49.254;8.894;2024-01-30T13:21:20;10.37;;;8.40;;
7807;SDS011;3949;49.254;8.894;2024-01-30T13:23:46;11.77;;;9.33;;
7807;SDS011;3949;49.254;8.894;2024-01-30T13:26:12;11.97;;;9.50;;
7807;SDS011;3949;49.254;8.894;2024-01-30T13:28:38;12.70;;;10.30;;
7807;SDS011;3949;49.254;8.894;2024-01-30T13:31:04;11.60;;;8.40;;
7807;SDS011;3949;49.254;8.894;2024-01-30T13:33:31;12.60;;;9.40;;
7807;SDS011;3949;49.254;8.894;2024-01-30T13:35:57;11.40;;;10.20;;
7807;SDS011;3949;49.254;8.894;2024-01-30T13:38:23;9.50;;;8.50;;
7807;SDS011;3949;49.254;8.894;2024-01-30T13:40:49;12.63;;;10.50;;
7807;SDS011;3949;49.254;8.894;2024-01-30T13:43:15;10.80;;;9.50;;
7807;SDS011;3949;49.254;8.894;2024-01-30T13:45:42;10.27;;;8.70;;
7807;SDS011;3949;49.254;8.894;2024-01-30T13:48:08;8.33;;;6.90;;
7807;SDS011;3949;49.254;8.894;2024-01-30T13:50:34;10.10;;;7.20;;
7807;SDS011;3949;49.254;8.894;2024-01-30T13:55:27;10.20;;;8.33;;
7807;SDS011;3949;49.254;8.894;2024-01-30T13:57:53;9.93;;;7.57;;
7807;SDS011;3949;49.254;8.894;2024-01-30T14:00:20;11.20;;;9.03;;
7807;SDS011;3949;49.254;8.894;2024-01-30T14:02:47;8.63;;;7.20;;
7807;SDS011;3949;49.254;8.894;2024-01-30T14:05:13;12.20;;;8.27;;
7807;SDS011;3949;49.254;8.894;2024-01-30T14:07:40;9.40;;;7.90;;
7807;SDS011;3949;49.254;8.894;2024-01-30T14:10:08;8.87;;;7.10;;
7807;SDS011;3949;49.254;8.894;2024-01-30T14:12:36;10.97;;;7.87;;
7807;SDS011;3949;49.254;8.894;2024-01-30T14:15:02;10.27;;;8.73;;
7807;SDS011;3949;49.254;8.894;2024-01-30T14:17:28;10.00;;;8.50;;
7807;SDS011;3949;49.254;8.894;2024-01-30T14:19:54;11.33;;;8.17;;
7807;SDS011;3949;49.254;8.894;2024-01-30T14:22:20;8.93;;;7.53;;
7807;SDS011;3949;49.254;8.894;2024-01-30T14:24:46;15.40;;;10.20;;
7807;SDS011;3949;49.254;8.894;2024-01-30T14:27:12;16.90;;;13.13;;
7807;SDS011;3949;49.254;8.894;2024-01-30T14:29:38;18.47;;;13.83;;
7807;SDS011;3949;49.254;8.894;2024-01-30T14:32:04;13.83;;;10.73;;
7807;SDS011;3949;49.254;8.894;2024-01-30T14:34:30;11.87;;;10.67;;
7807;SDS011;3949;49.254;8.894;2024-01-30T14:36:56;11.93;;;10.27;;
7807;SDS011;3949;49.254;8.894;2024-01-30T14:39:22;12.87;;;9.20;;
7807;SDS011;3949;49.254;8.894;2024-01-30T14:41:48;12.73;;;9.53;;
7807;SDS011;3949;49.254;8.894;2024-01-30T14:44:14;14.43;;;10.60;;
7807;SDS011;3949;49.254;8.894;2024-01-30T14:46:40;18.43;;;12.53;;
7807;SDS011;3949;49.254;8.894;2024-01-30T14:49:07;18.13;;;11.27;;
7807;SDS011;3949;49.254;8.894;2024-01-30T14:51:34;16.97;;;10.53;;
7807;SDS011;3949;49.254;8.894;2024-01-30T14:54:00;14.63;;;10.43;;
7807;SDS011;3949;49.254;8.894;2024-01-30T14:56:26;13.20;;;8.93;;
7807;SDS011;3949;49.254;8.894;2024-01-30T14:58:52;12.83;;;9.17;;
7807;SDS011;3949;49.254;8.894;2024-01-30T15:01:19;13.13;;;10.50;;